createdAt,value
2016-10-23T00:00:57.589Z,1006.65
2016-10-23T00:01:57.546Z,1006.67
2016-10-23T00:02:57.528Z,1006.65
2016-10-23T00:03:57.479Z,1006.63
2016-10-23T00:04:57.448Z,1006.62
2016-10-23T00:05:57.427Z,1006.63
2016-10-23T00:06:57.416Z,1006.65
2016-10-23T00:07:57.355Z,1006.68
2016-10-23T00:08:57.395Z,1006.63
2016-10-23T00:09:57.302Z,1006.7
2016-10-23T00:10:57.270Z,1006.64
2016-10-23T00:11:57.241Z,1006.65
2016-10-23T00:12:57.213Z,1006.63
2016-10-23T00:13:57.212Z,1006.65
2016-10-23T00:14:57.158Z,1006.62
2016-10-23T00:15:57.122Z,1006.63
2016-10-23T00:16:57.100Z,1006.61
2016-10-23T00:17:57.133Z,1006.61
2016-10-23T00:18:57.043Z,1006.62
2016-10-23T00:19:57.004Z,1006.65
2016-10-23T00:20:56.990Z,1006.61
2016-10-23T00:21:56.940Z,1006.6
2016-10-23T00:22:56.906Z,1006.59
2016-10-23T00:23:56.891Z,1006.57
2016-10-23T00:24:56.850Z,1006.6
2016-10-23T00:25:56.815Z,1006.58
2016-10-23T00:26:56.783Z,1006.59
2016-10-23T00:27:56.749Z,1006.61
2016-10-23T00:28:56.742Z,1006.63
2016-10-23T00:29:56.693Z,1006.64
2016-10-23T00:30:56.663Z,1006.6
2016-10-23T00:31:56.632Z,1006.62
2016-10-23T00:32:56.606Z,1006.61
2016-10-23T00:33:56.580Z,1006.63
2016-10-23T00:34:56.538Z,1006.66
2016-10-23T00:35:56.509Z,1006.63
2016-10-23T00:36:56.488Z,1006.61
2016-10-23T00:37:56.442Z,1006.65
2016-10-23T00:38:56.443Z,1006.64
2016-10-23T00:39:56.383Z,1006.65
2016-10-23T00:40:56.362Z,1006.66
2016-10-23T00:41:56.319Z,1006.62
2016-10-23T00:42:56.290Z,1006.64
2016-10-23T00:43:56.274Z,1006.62
2016-10-23T00:44:56.233Z,1006.6
2016-10-23T00:45:56.202Z,1006.61
2016-10-23T00:46:56.176Z,1006.59
2016-10-23T00:47:56.148Z,1006.59
2016-10-23T00:48:56.115Z,1006.55
2016-10-23T00:50:56.058Z,1006.54
2016-10-23T00:52:55.999Z,1006.52
2016-10-23T00:54:55.927Z,1006.53
2016-10-23T00:56:55.875Z,1006.52
2016-10-23T00:57:55.835Z,1006.52
2016-10-23T00:58:55.805Z,1006.54
2016-10-23T00:59:55.786Z,1006.51
2016-10-23T01:00:55.749Z,1006.52
2016-10-23T01:01:55.720Z,1006.52
2016-10-23T01:02:55.680Z,1006.53
2016-10-23T01:03:55.650Z,1006.56
2016-10-23T01:04:55.993Z,1006.56
2016-10-23T01:05:55.590Z,1006.53
2016-10-23T01:06:55.572Z,1006.55
2016-10-23T01:07:55.524Z,1006.55
2016-10-23T01:08:55.493Z,1006.55
2016-10-23T01:09:55.470Z,1006.54
2016-10-23T01:10:55.446Z,1006.57
2016-10-23T01:11:55.411Z,1006.54
2016-10-23T01:12:55.417Z,1006.56
2016-10-23T01:13:55.351Z,1006.52
2016-10-23T01:14:55.314Z,1006.54
2016-10-23T01:15:55.275Z,1006.51
2016-10-23T01:16:55.247Z,1006.5
2016-10-23T01:17:55.216Z,1006.51
2016-10-23T01:18:55.203Z,1006.5
2016-10-23T01:19:55.220Z,1006.47
2016-10-23T01:21:55.095Z,1006.49
2016-10-23T01:22:55.081Z,1006.49
2016-10-23T01:23:55.034Z,1006.48
2016-10-23T01:24:55.005Z,1006.49
2016-10-23T01:25:55.095Z,1006.45
2016-10-23T01:26:54.949Z,1006.51
2016-10-23T01:28:54.872Z,1006.51
2016-10-23T01:29:54.863Z,1006.47
2016-10-23T01:30:54.811Z,1006.53
2016-10-23T01:31:54.792Z,1006.53
2016-10-23T01:32:54.799Z,1006.52
2016-10-23T01:33:54.725Z,1006.47
2016-10-23T01:34:54.737Z,1006.49
2016-10-23T01:35:54.727Z,1006.47
2016-10-23T01:36:54.962Z,1006.5
2016-10-23T01:37:54.591Z,1006.48
2016-10-23T01:38:54.569Z,1006.46
2016-10-23T01:39:54.536Z,1006.45
2016-10-23T01:40:54.518Z,1006.49
2016-10-23T01:41:54.493Z,1006.47
2016-10-23T01:42:54.471Z,1006.48
2016-10-23T01:43:54.429Z,1006.45
2016-10-23T01:44:54.379Z,1006.47
2016-10-23T01:45:54.350Z,1006.46
2016-10-23T01:46:54.377Z,1006.45
2016-10-23T01:47:54.289Z,1006.48
2016-10-23T01:48:54.284Z,1006.47
2016-10-23T01:49:54.228Z,1006.47
2016-10-23T01:50:54.192Z,1006.49
2016-10-23T01:51:54.176Z,1006.48
2016-10-23T01:52:54.134Z,1006.47
2016-10-23T01:53:54.115Z,1006.46
2016-10-23T01:54:54.112Z,1006.45
2016-10-23T01:55:54.086Z,1006.43
2016-10-23T01:56:54.008Z,1006.42
2016-10-23T01:57:53.987Z,1006.42
2016-10-23T01:58:53.939Z,1006.4
2016-10-23T01:59:53.912Z,1006.4
2016-10-23T02:00:54.316Z,1006.42
2016-10-23T02:01:53.847Z,1006.38
2016-10-23T02:02:53.813Z,1006.39
2016-10-23T02:03:53.793Z,1006.42
2016-10-23T02:04:53.762Z,1006.39
2016-10-23T02:05:53.721Z,1006.37
2016-10-23T02:07:53.662Z,1006.38
2016-10-23T02:09:53.641Z,1006.35
2016-10-23T02:10:53.565Z,1006.36
2016-10-23T02:11:53.548Z,1006.33
2016-10-23T02:12:53.510Z,1006.36
2016-10-23T02:13:53.491Z,1006.35
2016-10-23T02:15:53.430Z,1006.31
2016-10-23T02:16:53.378Z,1006.34
2016-10-23T02:17:53.369Z,1006.28
2016-10-23T02:18:53.368Z,1006.28
2016-10-23T02:19:53.297Z,1006.31
2016-10-23T02:20:53.263Z,1006.29
2016-10-23T02:21:53.223Z,1006.29
2016-10-23T02:22:53.228Z,1006.32
2016-10-23T02:23:53.194Z,1006.34
2016-10-23T02:24:53.132Z,1006.34
2016-10-23T02:25:53.206Z,1006.35
2016-10-23T02:26:53.071Z,1006.34
2016-10-23T02:27:53.042Z,1006.34
2016-10-23T02:28:53.080Z,1006.32
2016-10-23T02:29:53.085Z,1006.29
2016-10-23T02:30:52.948Z,1006.31
2016-10-23T02:31:52.917Z,1006.31
2016-10-23T02:32:52.880Z,1006.28
2016-10-23T02:33:52.858Z,1006.31
2016-10-23T02:34:52.885Z,1006.31
2016-10-23T02:35:52.837Z,1006.3
2016-10-23T02:36:53.437Z,1006.35
2016-10-23T02:37:52.756Z,1006.29
2016-10-23T02:38:52.696Z,1006.31
2016-10-23T02:39:52.756Z,1006.32
2016-10-23T02:40:52.632Z,1006.33
2016-10-23T02:41:52.635Z,1006.34
2016-10-23T02:42:52.573Z,1006.29
2016-10-23T02:43:52.773Z,1006.33
2016-10-23T02:44:52.522Z,1006.27
2016-10-23T02:45:52.514Z,1006.24
2016-10-23T02:46:52.498Z,1006.24
2016-10-23T02:47:52.468Z,1006.2
2016-10-23T02:48:52.385Z,1006.23
2016-10-23T02:49:52.354Z,1006.24
2016-10-23T02:50:52.318Z,1006.22
2016-10-23T02:51:52.293Z,1006.24
2016-10-23T02:52:52.258Z,1006.22
2016-10-23T02:53:52.230Z,1006.17
2016-10-23T02:55:52.175Z,1006.21
2016-10-23T02:56:52.150Z,1006.19
2016-10-23T02:57:52.110Z,1006.18
2016-10-23T02:58:52.129Z,1006.22
2016-10-23T02:59:52.052Z,1006.2
2016-10-23T03:00:52.008Z,1006.19
2016-10-23T03:01:51.978Z,1006.18
2016-10-23T03:02:51.950Z,1006.15
2016-10-23T03:03:51.932Z,1006.17
2016-10-23T03:04:51.945Z,1006.15
2016-10-23T03:06:51.831Z,1006.15
2016-10-23T03:07:51.789Z,1006.15
2016-10-23T03:08:51.758Z,1006.11
2016-10-23T03:09:51.790Z,1006.12
2016-10-23T03:10:51.713Z,1006.14
2016-10-23T03:11:51.781Z,1006.12
2016-10-23T03:12:51.676Z,1006.14
2016-10-23T03:13:52.075Z,1006.11
2016-10-23T03:14:51.601Z,1006.12
2016-10-23T03:15:51.554Z,1006.14
2016-10-23T03:16:51.518Z,1006.12
2016-10-23T03:17:51.479Z,1006.09
2016-10-23T03:18:51.461Z,1006.12
2016-10-23T03:19:51.413Z,1006.14
2016-10-23T03:20:51.387Z,1006.12
2016-10-23T03:21:51.395Z,1006.12
2016-10-23T03:22:51.318Z,1006.14
2016-10-23T03:23:51.297Z,1006.17
2016-10-23T03:24:51.267Z,1006.19
2016-10-23T03:25:51.231Z,1006.17
2016-10-23T03:26:51.191Z,1006.21
2016-10-23T03:27:51.255Z,1006.2
2016-10-23T03:28:51.150Z,1006.19
2016-10-23T03:29:51.097Z,1006.18
2016-10-23T03:30:51.067Z,1006.13
2016-10-23T03:31:51.043Z,1006.16
2016-10-23T03:32:51.054Z,1006.13
2016-10-23T03:33:50.974Z,1006.14
2016-10-23T03:34:50.951Z,1006.14
2016-10-23T03:35:50.920Z,1006.11
2016-10-23T03:36:50.886Z,1006.16
2016-10-23T03:37:50.844Z,1006.19
2016-10-23T03:38:50.821Z,1006.18
2016-10-23T03:39:50.847Z,1006.23
2016-10-23T03:40:50.753Z,1006.18
2016-10-23T03:41:50.723Z,1006.18
2016-10-23T03:42:50.700Z,1006.17
2016-10-23T03:43:50.665Z,1006.17
2016-10-23T03:44:50.660Z,1006.17
2016-10-23T03:45:50.603Z,1006.15
2016-10-23T03:46:50.638Z,1006.15
2016-10-23T03:47:50.550Z,1006.16
2016-10-23T03:48:50.536Z,1006.16
2016-10-23T03:49:50.475Z,1006.12
2016-10-23T03:50:50.440Z,1006.16
2016-10-23T03:51:50.415Z,1006.18
2016-10-23T03:52:50.374Z,1006.15
2016-10-23T03:53:50.364Z,1006.14
2016-10-23T03:54:50.353Z,1006.15
2016-10-23T03:55:50.297Z,1006.14
2016-10-23T03:56:50.256Z,1006.12
2016-10-23T03:57:50.231Z,1006.1
2016-10-23T03:58:50.184Z,1006.09
2016-10-23T03:59:50.159Z,1006.09
2016-10-23T04:00:50.184Z,1006.12
2016-10-23T04:01:50.098Z,1006.14
2016-10-23T04:02:50.066Z,1006.12
2016-10-23T04:03:50.025Z,1006.11
2016-10-23T04:04:50.011Z,1006.17
2016-10-23T04:05:49.990Z,1006.14
2016-10-23T04:06:49.963Z,1006.14
2016-10-23T04:07:49.903Z,1006.11
2016-10-23T04:08:49.883Z,1006.13
2016-10-23T04:09:49.860Z,1006.11
2016-10-23T04:10:49.813Z,1006.09
2016-10-23T04:11:49.797Z,1006.16
2016-10-23T04:12:49.759Z,1006.11
2016-10-23T04:13:49.741Z,1006.15
2016-10-23T04:14:49.700Z,1006.12
2016-10-23T04:15:50.208Z,1006.16
2016-10-23T04:16:49.641Z,1006.12
2016-10-23T04:17:49.643Z,1006.17
2016-10-23T04:18:49.863Z,1006.15
2016-10-23T04:19:49.525Z,1006.15
2016-10-23T04:20:49.567Z,1006.11
2016-10-23T04:21:49.581Z,1006.15
2016-10-23T04:22:59.706Z,1006.15
2016-10-23T04:23:49.398Z,1006.15
2016-10-23T04:25:49.356Z,1006.17
2016-10-23T04:27:49.274Z,1006.13
2016-10-23T04:28:49.279Z,1006.09
2016-10-23T04:29:49.255Z,1006.13
2016-10-23T04:30:49.174Z,1006.14
2016-10-23T04:31:49.145Z,1006.14
2016-10-23T04:32:49.116Z,1006.11
2016-10-23T04:33:49.174Z,1006.11
2016-10-23T04:34:49.049Z,1006.17
2016-10-23T04:35:49.017Z,1006.16
2016-10-23T04:36:48.996Z,1006.08
2016-10-23T04:37:48.950Z,1006.1
2016-10-23T04:38:48.979Z,1006.1
2016-10-23T04:39:49.037Z,1006.07
2016-10-23T04:40:48.870Z,1006.06
2016-10-23T04:41:48.829Z,1006.06
2016-10-23T04:43:48.763Z,1006.06
2016-10-23T04:44:48.786Z,1006.1
2016-10-23T04:45:48.705Z,1006.09
2016-10-23T04:46:48.691Z,1006.11
2016-10-23T04:47:48.640Z,1006.07
2016-10-23T04:48:48.609Z,1006.09
2016-10-23T04:49:48.576Z,1006.04
2016-10-23T04:50:48.539Z,1006.03
2016-10-23T04:51:48.528Z,1006.09
2016-10-23T04:52:48.477Z,1006.06
2016-10-23T04:53:48.450Z,1006.04
2016-10-23T04:54:48.433Z,1006.05
2016-10-23T04:56:48.351Z,1006
2016-10-23T04:57:48.330Z,1005.98
2016-10-23T04:58:48.291Z,1005.96
2016-10-23T04:59:48.255Z,1006
2016-10-23T05:00:48.242Z,1005.97
2016-10-23T05:01:48.206Z,1005.97
2016-10-23T05:03:48.131Z,1005.99
2016-10-23T05:04:48.121Z,1005.99
2016-10-23T05:05:48.145Z,1005.96
2016-10-23T05:06:48.029Z,1005.99
2016-10-23T05:08:48.051Z,1005.97
2016-10-23T05:09:47.950Z,1005.96
2016-10-23T05:10:47.915Z,1005.96
2016-10-23T05:11:47.899Z,1006.02
2016-10-23T05:12:47.860Z,1005.98
2016-10-23T05:13:48.111Z,1005.96
2016-10-23T05:14:47.785Z,1005.97
2016-10-23T05:15:47.747Z,1006
2016-10-23T05:16:47.723Z,1005.98
2016-10-23T05:17:47.687Z,1005.97
2016-10-23T05:19:47.622Z,1006
2016-10-23T05:20:47.716Z,1005.97
2016-10-23T05:21:47.570Z,1005.95
2016-10-23T05:22:47.756Z,1005.96
2016-10-23T05:23:47.509Z,1005.98
2016-10-23T05:24:47.498Z,1005.98
2016-10-23T05:25:47.453Z,1005.96
2016-10-23T05:26:47.396Z,1005.98
2016-10-23T05:27:47.745Z,1005.98
2016-10-23T05:28:47.338Z,1005.98
2016-10-23T05:29:47.305Z,1005.97
2016-10-23T05:30:47.273Z,1005.98
2016-10-23T05:31:47.241Z,1005.94
2016-10-23T05:32:47.205Z,1005.96
2016-10-23T05:33:47.174Z,1005.96
2016-10-23T05:34:47.148Z,1005.95
2016-10-23T05:35:47.107Z,1005.94
2016-10-23T05:36:47.091Z,1005.92
2016-10-23T05:37:47.051Z,1005.93
2016-10-23T05:38:47.042Z,1005.95
2016-10-23T05:39:46.992Z,1005.88
2016-10-23T05:40:46.977Z,1005.94
2016-10-23T05:41:46.950Z,1005.96
2016-10-23T05:42:46.896Z,1005.95
2016-10-23T05:43:46.861Z,1006
2016-10-23T05:44:46.838Z,1005.95
2016-10-23T05:46:46.863Z,1005.94
2016-10-23T05:47:46.732Z,1005.94
2016-10-23T05:48:46.696Z,1005.95
2016-10-23T05:49:46.671Z,1005.96
2016-10-23T05:50:46.640Z,1005.94
2016-10-23T05:51:46.608Z,1005.93
2016-10-23T05:52:46.575Z,1005.96
2016-10-23T05:53:46.561Z,1005.97
2016-10-23T05:54:46.510Z,1005.94
2016-10-23T05:55:46.907Z,1005.95
2016-10-23T05:56:46.444Z,1005.94
2016-10-23T05:57:46.447Z,1005.98
2016-10-23T05:58:46.374Z,1006.04
2016-10-23T05:59:46.355Z,1006.04
2016-10-23T06:00:46.329Z,1006.05
2016-10-23T06:01:46.283Z,1006.04
2016-10-23T06:02:46.255Z,1006.05
2016-10-23T06:03:46.219Z,1006.06
2016-10-23T06:04:46.192Z,1006.08
2016-10-23T06:05:46.151Z,1006.1
2016-10-23T06:06:46.123Z,1006.06
2016-10-23T06:07:46.090Z,1006.14
2016-10-23T06:08:46.147Z,1006.09
2016-10-23T06:09:46.110Z,1006.14
2016-10-23T06:10:46.115Z,1006.1
2016-10-23T06:11:45.973Z,1006.1
2016-10-23T06:12:45.931Z,1006.12
2016-10-23T06:13:46.003Z,1006.11
2016-10-23T06:14:45.887Z,1006.07
2016-10-23T06:15:45.849Z,1006.11
2016-10-23T06:16:45.805Z,1006.12
2016-10-23T06:17:45.863Z,1006.11
2016-10-23T06:18:45.755Z,1006.09
2016-10-23T06:19:45.714Z,1006.11
2016-10-23T06:20:45.729Z,1006.11
2016-10-23T06:21:45.648Z,1006.12
2016-10-23T06:22:45.616Z,1006.09
2016-10-23T06:23:45.583Z,1006.1
2016-10-23T06:24:45.749Z,1006.08
2016-10-23T06:25:45.583Z,1006.1
2016-10-23T06:26:45.492Z,1006.12
2016-10-23T06:27:45.483Z,1006.09
2016-10-23T06:28:45.425Z,1006.13
2016-10-23T06:29:45.403Z,1006.14
2016-10-23T06:30:45.411Z,1006.12
2016-10-23T06:31:45.348Z,1006.12
2016-10-23T06:32:45.335Z,1006.14
2016-10-23T06:33:45.488Z,1006.14
2016-10-23T06:34:45.230Z,1006.14
2016-10-23T06:35:45.208Z,1006.16
2016-10-23T06:36:45.189Z,1006.18
2016-10-23T06:37:45.143Z,1006.13
2016-10-23T06:38:45.131Z,1006.14
2016-10-23T06:39:45.190Z,1006.17
2016-10-23T06:40:47.214Z,1006.18
2016-10-23T06:41:45.014Z,1006.16
2016-10-23T06:42:45.038Z,1006.18
2016-10-23T06:43:44.954Z,1006.13
2016-10-23T06:44:44.946Z,1006.16
2016-10-23T06:45:45.280Z,1006.17
2016-10-23T06:46:44.937Z,1006.15
2016-10-23T06:47:44.822Z,1006.12
2016-10-23T06:48:44.798Z,1006.16
2016-10-23T06:49:44.755Z,1006.13
2016-10-23T06:50:44.733Z,1006.17
2016-10-23T06:51:44.701Z,1006.19
2016-10-23T06:52:44.661Z,1006.19
2016-10-23T06:53:44.636Z,1006.21
2016-10-23T06:54:44.609Z,1006.19
2016-10-23T06:55:44.661Z,1006.23
2016-10-23T06:57:44.522Z,1006.22
2016-10-23T06:59:44.576Z,1006.23
2016-10-23T07:00:44.403Z,1006.24
2016-10-23T07:01:44.365Z,1006.22
2016-10-23T07:02:44.427Z,1006.2
2016-10-23T07:03:44.345Z,1006.23
2016-10-23T07:04:44.357Z,1006.26
2016-10-23T07:05:44.322Z,1006.23
2016-10-23T07:06:44.208Z,1006.22
2016-10-23T07:07:44.186Z,1006.23
2016-10-23T07:08:44.155Z,1006.24
2016-10-23T07:09:44.246Z,1006.25
2016-10-23T07:10:44.083Z,1006.22
2016-10-23T07:11:44.051Z,1006.26
2016-10-23T07:12:44.016Z,1006.24
2016-10-23T07:13:43.987Z,1006.24
2016-10-23T07:14:43.950Z,1006.26
2016-10-23T07:15:43.962Z,1006.26
2016-10-23T07:16:43.895Z,1006.25
2016-10-23T07:17:43.867Z,1006.27
2016-10-23T07:18:43.830Z,1006.27
2016-10-23T07:19:43.792Z,1006.27
2016-10-23T07:20:43.768Z,1006.29
2016-10-23T07:21:43.736Z,1006.32
2016-10-23T07:22:44.018Z,1006.36
2016-10-23T07:23:43.666Z,1006.35
2016-10-23T07:24:43.668Z,1006.36
2016-10-23T07:25:43.615Z,1006.36
2016-10-23T07:26:43.578Z,1006.36
2016-10-23T07:27:43.559Z,1006.37
2016-10-23T07:28:43.502Z,1006.38
2016-10-23T07:29:43.475Z,1006.38
2016-10-23T07:30:43.442Z,1006.37
2016-10-23T07:31:43.419Z,1006.37
2016-10-23T07:32:43.386Z,1006.36
2016-10-23T07:33:43.365Z,1006.34
2016-10-23T07:34:43.322Z,1006.34
2016-10-23T07:35:43.334Z,1006.35
2016-10-23T07:36:43.266Z,1006.32
2016-10-23T07:37:43.244Z,1006.34
2016-10-23T07:38:43.206Z,1006.34
2016-10-23T07:39:43.156Z,1006.36
2016-10-23T07:41:43.390Z,1006.39
2016-10-23T07:42:43.073Z,1006.37
2016-10-23T07:43:43.047Z,1006.35
2016-10-23T07:44:42.989Z,1006.38
2016-10-23T07:45:42.995Z,1006.35
2016-10-23T07:46:43.127Z,1006.33
2016-10-23T07:47:42.930Z,1006.34
2016-10-23T07:48:42.907Z,1006.38
2016-10-23T07:49:42.833Z,1006.38
2016-10-23T07:50:42.870Z,1006.4
2016-10-23T07:51:42.777Z,1006.37
2016-10-23T07:52:42.742Z,1006.37
2016-10-23T07:53:42.769Z,1006.37
2016-10-23T07:54:42.684Z,1006.34
2016-10-23T07:55:42.646Z,1006.34
2016-10-23T07:56:42.632Z,1006.3
2016-10-23T07:57:42.629Z,1006.3
2016-10-23T07:58:42.638Z,1006.3
2016-10-23T07:59:42.523Z,1006.29
2016-10-23T08:00:42.480Z,1006.31
2016-10-23T08:01:42.463Z,1006.32
2016-10-23T08:02:42.450Z,1006.33
2016-10-23T08:03:42.456Z,1006.33
2016-10-23T08:04:42.356Z,1006.31
2016-10-23T08:05:42.412Z,1006.35
2016-10-23T08:06:42.310Z,1006.36
2016-10-23T08:07:42.262Z,1006.39
2016-10-23T08:08:42.247Z,1006.38
2016-10-23T08:09:42.200Z,1006.39
2016-10-23T08:10:42.186Z,1006.37
2016-10-23T08:11:42.130Z,1006.39
2016-10-23T08:12:42.151Z,1006.42
2016-10-23T08:13:42.111Z,1006.38
2016-10-23T08:14:42.071Z,1006.42
2016-10-23T08:15:42.012Z,1006.4
2016-10-23T08:17:41.962Z,1006.44
2016-10-23T08:18:41.911Z,1006.43
2016-10-23T08:19:41.884Z,1006.46
2016-10-23T08:20:41.855Z,1006.46
2016-10-23T08:21:41.821Z,1006.47
2016-10-23T08:22:41.792Z,1006.45
2016-10-23T08:23:41.780Z,1006.49
2016-10-23T08:24:41.790Z,1006.48
2016-10-23T08:25:41.698Z,1006.51
2016-10-23T08:26:41.663Z,1006.49
2016-10-23T08:27:41.691Z,1006.46
2016-10-23T08:28:41.592Z,1006.51
2016-10-23T08:29:41.569Z,1006.5
2016-10-23T08:30:41.532Z,1006.45
2016-10-23T08:31:41.527Z,1006.46
2016-10-23T08:32:41.472Z,1006.46
2016-10-23T08:33:41.437Z,1006.49
2016-10-23T08:34:41.418Z,1006.47
2016-10-23T08:35:41.380Z,1006.46
2016-10-23T08:36:41.340Z,1006.47
2016-10-23T08:37:41.337Z,1006.46
2016-10-23T08:38:41.288Z,1006.46
2016-10-23T08:39:41.257Z,1006.4
2016-10-23T08:40:41.219Z,1006.47
2016-10-23T08:41:41.239Z,1006.44
2016-10-23T08:42:41.158Z,1006.42
2016-10-23T08:43:41.121Z,1006.44
2016-10-23T08:44:41.121Z,1006.42
2016-10-23T08:45:41.056Z,1006.43
2016-10-23T08:46:41.041Z,1006.42
2016-10-23T08:47:40.999Z,1006.45
2016-10-23T08:48:40.960Z,1006.46
2016-10-23T08:49:40.934Z,1006.47
2016-10-23T08:50:40.905Z,1006.49
2016-10-23T08:51:40.874Z,1006.46
2016-10-23T08:52:40.846Z,1006.46
2016-10-23T08:53:40.814Z,1006.46
2016-10-23T08:54:40.774Z,1006.47
2016-10-23T08:55:40.846Z,1006.42
2016-10-23T08:56:40.713Z,1006.42
2016-10-23T08:57:40.750Z,1006.41
2016-10-23T08:58:40.663Z,1006.37
2016-10-23T08:59:40.672Z,1006.38
2016-10-23T09:00:40.583Z,1006.38
2016-10-23T09:01:40.875Z,1006.39
2016-10-23T09:02:40.578Z,1006.31
2016-10-23T09:03:40.495Z,1006.32
2016-10-23T09:04:40.795Z,1006.33
2016-10-23T09:05:40.450Z,1006.3
2016-10-23T09:06:40.576Z,1006.31
2016-10-23T09:07:40.869Z,1006.28
2016-10-23T09:08:40.582Z,1006.29
2016-10-23T09:10:41.387Z,1006.28
2016-10-23T09:11:40.524Z,1006.31
2016-10-23T09:12:40.474Z,1006.29
2016-10-23T09:13:40.972Z,1006.27
2016-10-23T09:14:40.572Z,1006.27
2016-10-23T09:16:40.591Z,1006.3
2016-10-23T09:17:40.395Z,1006.29
2016-10-23T09:18:40.915Z,1006.28
2016-10-23T09:19:40.669Z,1006.31
2016-10-23T09:22:40.980Z,1006.26
2016-10-23T09:28:40.395Z,1006.23
2016-10-23T09:29:40.557Z,1006.21
2016-10-23T09:30:39.873Z,1006.22
2016-10-23T09:31:39.877Z,1006.22
2016-10-23T09:32:39.783Z,1006.19
2016-10-23T09:33:39.588Z,1006.2
2016-10-23T09:34:39.533Z,1006.22
2016-10-23T09:35:39.544Z,1006.18
2016-10-23T09:36:39.463Z,1006.17
2016-10-23T09:37:39.432Z,1006.15
2016-10-23T09:38:39.407Z,1006.16
2016-10-23T09:39:39.380Z,1006.15
2016-10-23T09:40:39.343Z,1006.1
2016-10-23T09:41:39.338Z,1006.13
2016-10-23T09:42:39.335Z,1006.14
2016-10-23T09:43:39.247Z,1006.12
2016-10-23T09:44:39.216Z,1006.11
2016-10-23T09:45:39.316Z,1006.11
2016-10-23T09:46:39.151Z,1006.09
2016-10-23T09:47:39.133Z,1006.11
2016-10-23T09:49:39.057Z,1006.08
2016-10-23T09:50:39.037Z,1006.07
2016-10-23T09:51:39.010Z,1006.06
2016-10-23T09:52:38.971Z,1006.07
2016-10-23T09:53:38.935Z,1005.99
2016-10-23T09:54:38.908Z,1006.05
2016-10-23T09:55:38.884Z,1006.06
2016-10-23T09:56:38.851Z,1006.05
2016-10-23T09:57:38.812Z,1006.07
2016-10-23T09:58:38.777Z,1006.06
2016-10-23T09:59:38.748Z,1006.06
2016-10-23T10:00:38.738Z,1006.05
2016-10-23T10:01:38.696Z,1006.02
2016-10-23T10:02:38.659Z,1006.01
2016-10-23T10:03:38.627Z,1006.02
2016-10-23T10:04:38.597Z,1006.02
2016-10-23T10:05:38.621Z,1006.02
2016-10-23T10:06:38.556Z,1006.02
2016-10-23T10:07:38.501Z,1006.05
2016-10-23T10:08:38.479Z,1006.07
2016-10-23T10:09:38.457Z,1006.02
2016-10-23T10:10:38.451Z,1006.07
2016-10-23T10:11:38.434Z,1006.05
2016-10-23T10:12:38.369Z,1006.09
2016-10-23T10:13:38.322Z,1006.05
2016-10-23T10:14:38.293Z,1006.02
2016-10-23T10:15:38.645Z,1006.03
2016-10-23T10:16:38.239Z,1006.02
2016-10-23T10:17:38.208Z,1005.98
2016-10-23T10:18:38.169Z,1005.98
2016-10-23T10:20:38.250Z,1005.96
2016-10-23T10:21:38.080Z,1005.98
2016-10-23T10:22:38.051Z,1005.99
2016-10-23T10:23:38.062Z,1005.98
2016-10-23T10:24:37.987Z,1005.99
2016-10-23T10:25:37.956Z,1005.96
2016-10-23T10:26:37.928Z,1005.95
2016-10-23T10:27:37.908Z,1005.95
2016-10-23T10:28:37.864Z,1005.95
2016-10-23T10:29:37.981Z,1005.94
2016-10-23T10:30:38.228Z,1005.9
2016-10-23T10:31:37.840Z,1005.87
2016-10-23T10:32:37.761Z,1005.88
2016-10-23T10:33:37.719Z,1005.83
2016-10-23T10:34:37.684Z,1005.81
2016-10-23T10:35:37.663Z,1005.81
2016-10-23T10:36:37.642Z,1005.81
2016-10-23T10:37:37.611Z,1005.78
2016-10-23T10:38:37.581Z,1005.78
2016-10-23T10:39:37.611Z,1005.78
2016-10-23T10:40:37.521Z,1005.75
2016-10-23T10:41:37.506Z,1005.74
2016-10-23T10:42:37.493Z,1005.76
2016-10-23T10:43:37.448Z,1005.73
2016-10-23T10:44:37.411Z,1005.71
2016-10-23T10:45:37.370Z,1005.72
2016-10-23T10:46:37.482Z,1005.71
2016-10-23T10:48:37.317Z,1005.68
2016-10-23T10:49:37.250Z,1005.68
2016-10-23T10:50:37.229Z,1005.7
2016-10-23T10:51:37.184Z,1005.67
2016-10-23T11:41:44.138Z,1005.16
2016-10-23T11:42:43.652Z,1005.13
2016-10-23T11:43:43.420Z,1005.15
2016-10-23T11:44:43.382Z,1005.16
2016-10-23T11:45:43.323Z,1005.18
2016-10-23T11:46:43.295Z,1005.18
2016-10-23T11:47:43.261Z,1005.16
2016-10-23T11:48:43.234Z,1005.16
2016-10-23T11:49:43.213Z,1005.11
2016-10-23T11:50:43.174Z,1005.12
2016-10-23T11:51:43.170Z,1005.08
2016-10-23T11:52:43.128Z,1005.1
2016-10-23T11:53:43.094Z,1005.1
2016-10-23T11:54:43.054Z,1005.15
2016-10-23T11:55:43.040Z,1005.12
2016-10-23T11:56:43.005Z,1005.07
2016-10-23T11:57:42.980Z,1005.08
2016-10-23T11:58:42.938Z,1005.08
2016-10-23T11:59:42.912Z,1005.05
2016-10-23T12:00:43.251Z,1005.03
2016-10-23T12:01:42.852Z,1005.03
2016-10-23T12:02:42.827Z,1005
2016-10-23T12:03:42.807Z,1005.01
2016-10-23T12:04:42.773Z,1004.98
2016-10-23T12:06:42.788Z,1004.94
2016-10-23T12:07:42.684Z,1004.98
2016-10-23T12:08:42.653Z,1004.94
2016-10-23T12:09:42.628Z,1004.93
2016-10-23T12:11:42.559Z,1004.91
2016-10-23T12:12:42.554Z,1004.9
2016-10-23T12:13:42.505Z,1004.91
2016-10-23T12:14:42.485Z,1004.83
2016-10-23T12:15:42.449Z,1004.87
2016-10-23T12:16:42.423Z,1004.85
2016-10-23T12:17:42.383Z,1004.86
2016-10-23T12:18:42.359Z,1004.86
2016-10-23T12:19:42.328Z,1004.87
2016-10-23T12:20:42.300Z,1004.85
2016-10-23T12:21:42.277Z,1004.85
2016-10-23T12:22:42.247Z,1004.81
2016-10-23T12:23:42.275Z,1004.82
2016-10-23T12:25:42.445Z,1004.81
2016-10-23T12:26:42.120Z,1004.76
2016-10-23T12:27:42.107Z,1004.74
2016-10-23T12:28:42.169Z,1004.75
2016-10-23T12:29:42.050Z,1004.73
2016-10-23T12:30:42.012Z,1004.73
2016-10-23T12:31:41.974Z,1004.71
2016-10-23T12:32:41.951Z,1004.69
2016-10-23T12:33:41.966Z,1004.68
2016-10-23T12:34:41.892Z,1004.68
2016-10-23T12:35:41.872Z,1004.65
2016-10-23T12:36:41.849Z,1004.64
2016-10-23T12:37:41.808Z,1004.7
2016-10-23T12:38:41.787Z,1004.69
2016-10-23T12:39:41.758Z,1004.71
2016-10-23T12:40:41.730Z,1004.68
2016-10-23T12:41:41.689Z,1004.71
2016-10-23T12:42:41.665Z,1004.72
2016-10-23T12:43:41.706Z,1004.75
2016-10-23T12:44:41.621Z,1004.72
2016-10-23T12:45:41.593Z,1004.7
2016-10-23T12:46:41.591Z,1004.72
2016-10-23T12:47:41.552Z,1004.69
2016-10-23T12:48:41.516Z,1004.7
2016-10-23T12:50:41.480Z,1004.66
2016-10-23T12:51:41.421Z,1004.66
2016-10-23T12:52:41.400Z,1004.66
2016-10-23T12:53:41.432Z,1004.65
2016-10-23T12:54:41.346Z,1004.62
2016-10-23T12:55:41.319Z,1004.65
2016-10-23T12:56:41.326Z,1004.68
2016-10-23T12:57:41.428Z,1004.66
2016-10-23T12:58:41.457Z,1004.65
2016-10-23T12:59:41.384Z,1004.7
2016-10-23T13:00:41.229Z,1004.68
2016-10-23T13:01:41.184Z,1004.7
2016-10-23T13:02:41.175Z,1004.67
2016-10-23T13:03:41.145Z,1004.68
2016-10-23T13:04:41.126Z,1004.67
2016-10-23T13:05:41.095Z,1004.68
2016-10-23T13:06:41.078Z,1004.71
2016-10-23T13:07:41.070Z,1004.68
2016-10-23T13:08:41.039Z,1004.67
2016-10-23T13:09:41.086Z,1004.67
2016-10-23T13:10:41.006Z,1004.65
2016-10-23T13:11:40.979Z,1004.64
2016-10-23T13:12:40.950Z,1004.66
2016-10-23T13:13:40.939Z,1004.63
2016-10-23T13:14:40.906Z,1004.61
2016-10-23T13:15:40.883Z,1004.66
2016-10-23T13:16:40.927Z,1004.64
2016-10-23T13:17:40.845Z,1004.65
2016-10-23T13:18:40.832Z,1004.69
2016-10-23T13:19:40.835Z,1004.61
2016-10-23T13:21:40.859Z,1004.63
2016-10-23T13:22:41.685Z,1004.62
2016-10-23T13:23:40.738Z,1004.65
2016-10-23T13:24:40.735Z,1004.66
2016-10-23T13:25:40.692Z,1004.65
2016-10-23T13:26:40.671Z,1004.63
2016-10-23T13:27:41.122Z,1004.65
2016-10-23T13:28:41.253Z,1004.6
2016-10-23T13:29:40.613Z,1004.63
2016-10-23T13:30:40.591Z,1004.62
2016-10-23T13:31:40.581Z,1004.64
2016-10-23T13:35:03.747Z,1004.66
2016-10-23T13:37:03.651Z,1004.65
2016-10-23T13:38:03.615Z,1004.65
2016-10-23T13:39:03.662Z,1004.63
2016-10-23T13:40:03.574Z,1004.66